sensor_id;sensor_type;location;lat;lon;timestamp;temperature;humidity
70986;DHT22;58645;43.068;25.610;2023-04-03T00:01:15;8.30;99.90
70986;DHT22;58645;43.068;25.610;2023-04-03T00:03:42;8.30;99.90
70986;DHT22;58645;43.068;25.610;2023-04-03T00:06:09;8.20;99.90
70986;DHT22;58645;43.068;25.610;2023-04-03T00:08:36;8.20;99.90
70986;DHT22;58645;43.068;25.610;2023-04-03T00:11:03;8.20;99.90
70986;DHT22;58645;43.068;25.610;2023-04-03T00:13:29;8.20;99.90
70986;DHT22;58645;43.068;25.610;2023-04-03T00:15:55;8.20;99.90
70986;DHT22;58645;43.068;25.610;2023-04-03T00:18:21;8.20;99.90
70986;DHT22;58645;43.068;25.610;2023-04-03T00:20:47;8.20;99.90
70986;DHT22;58645;43.068;25.610;2023-04-03T00:23:13;8.20;99.90
70986;DHT22;58645;43.068;25.610;2023-04-03T00:25:39;8.20;99.90
70986;DHT22;58645;43.068;25.610;2023-04-03T00:28:05;8.20;99.90
70986;DHT22;58645;43.068;25.610;2023-04-03T00:30:31;8.20;99.90
70986;DHT22;58645;43.068;25.610;2023-04-03T00:32:57;8.20;99.90
70986;DHT22;58645;43.068;25.610;2023-04-03T00:35:24;8.20;99.90
70986;DHT22;58645;43.068;25.610;2023-04-03T00:37:54;8.20;99.90
70986;DHT22;58645;43.068;25.610;2023-04-03T00:40:25;8.30;99.90
70986;DHT22;58645;43.068;25.610;2023-04-03T00:42:56;8.30;99.90
70986;DHT22;58645;43.068;25.610;2023-04-03T00:45:38;8.20;99.90
70986;DHT22;58645;43.068;25.610;2023-04-03T00:48:07;8.10;99.90
70986;DHT22;58645;43.068;25.610;2023-04-03T00:50:37;8.10;99.90
70986;DHT22;58645;43.068;25.610;2023-04-03T00:53:04;8.10;99.90
70986;DHT22;58645;43.068;25.610;2023-04-03T00:55:31;8.10;99.90
70986;DHT22;58645;43.068;25.610;2023-04-03T00:57:57;8.00;99.90
70986;DHT22;58645;43.068;25.610;2023-04-03T01:00:26;8.00;99.90
70986;DHT22;58645;43.068;25.610;2023-04-03T01:02:52;8.00;99.90
70986;DHT22;58645;43.068;25.610;2023-04-03T01:05:19;8.00;99.90
70986;DHT22;58645;43.068;25.610;2023-04-03T01:07:46;7.90;99.90
70986;DHT22;58645;43.068;25.610;2023-04-03T01:10:15;7.90;99.90
70986;DHT22;58645;43.068;25.610;2023-04-03T01:12:43;7.90;99.90
70986;DHT22;58645;43.068;25.610;2023-04-03T01:15:17;7.90;99.90
70986;DHT22;58645;43.068;25.610;2023-04-03T01:25:48;7.70;99.90
70986;DHT22;58645;43.068;25.610;2023-04-03T01:28:26;7.70;99.90
70986;DHT22;58645;43.068;25.610;2023-04-03T01:33:50;7.60;99.90
70986;DHT22;58645;43.068;25.610;2023-04-03T01:36:23;7.60;99.90
70986;DHT22;58645;43.068;25.610;2023-04-03T01:38:50;7.50;99.90
70986;DHT22;58645;43.068;25.610;2023-04-03T01:41:17;7.40;99.90
70986;DHT22;58645;43.068;25.610;2023-04-03T01:43:43;7.40;99.90
70986;DHT22;58645;43.068;25.610;2023-04-03T01:46:09;7.30;99.90
70986;DHT22;58645;43.068;25.610;2023-04-03T01:48:35;7.30;99.90
70986;DHT22;58645;43.068;25.610;2023-04-03T01:51:01;7.30;99.90
70986;DHT22;58645;43.068;25.610;2023-04-03T01:53:26;7.20;99.90
70986;DHT22;58645;43.068;25.610;2023-04-03T01:55:52;7.10;99.90
70986;DHT22;58645;43.068;25.610;2023-04-03T01:58:18;7.10;99.90
70986;DHT22;58645;43.068;25.610;2023-04-03T02:00:44;7.10;99.90
70986;DHT22;58645;43.068;25.610;2023-04-03T02:03:09;7.10;99.90
70986;DHT22;58645;43.068;25.610;2023-04-03T02:05:35;7.10;99.90
70986;DHT22;58645;43.068;25.610;2023-04-03T02:08:01;7.10;99.90
70986;DHT22;58645;43.068;25.610;2023-04-03T02:10:27;7.10;99.90
70986;DHT22;58645;43.068;25.610;2023-04-03T02:12:53;7.00;99.90
70986;DHT22;58645;43.068;25.610;2023-04-03T02:15:18;7.00;99.90
70986;DHT22;58645;43.068;25.610;2023-04-03T02:17:44;7.00;99.90
70986;DHT22;58645;43.068;25.610;2023-04-03T02:20:11;7.00;99.90
70986;DHT22;58645;43.068;25.610;2023-04-03T02:22:36;6.90;99.90
70986;DHT22;58645;43.068;25.610;2023-04-03T02:25:02;6.80;99.90
70986;DHT22;58645;43.068;25.610;2023-04-03T02:27:28;6.80;99.90
70986;DHT22;58645;43.068;25.610;2023-04-03T02:29:54;6.80;99.90
70986;DHT22;58645;43.068;25.610;2023-04-03T02:32:19;6.70;99.90
70986;DHT22;58645;43.068;25.610;2023-04-03T02:34:45;6.70;99.90
70986;DHT22;58645;43.068;25.610;2023-04-03T02:37:11;6.70;99.90
70986;DHT22;58645;43.068;25.610;2023-04-03T02:39:37;6.70;99.90
70986;DHT22;58645;43.068;25.610;2023-04-03T02:42:03;6.60;99.90
70986;DHT22;58645;43.068;25.610;2023-04-03T02:44:28;6.60;99.90
70986;DHT22;58645;43.068;25.610;2023-04-03T02:46:54;6.60;99.90
70986;DHT22;58645;43.068;25.610;2023-04-03T02:49:20;6.60;99.90
70986;DHT22;58645;43.068;25.610;2023-04-03T02:51:46;6.60;99.90
70986;DHT22;58645;43.068;25.610;2023-04-03T02:54:13;6.50;99.90
70986;DHT22;58645;43.068;25.610;2023-04-03T02:56:38;6.50;99.90
70986;DHT22;58645;43.068;25.610;2023-04-03T02:59:04;6.40;99.90
70986;DHT22;58645;43.068;25.610;2023-04-03T03:01:30;6.30;99.90
70986;DHT22;58645;43.068;25.610;2023-04-03T03:04:01;6.20;99.90
70986;DHT22;58645;43.068;25.610;2023-04-03T03:06:28;6.20;99.90
70986;DHT22;58645;43.068;25.610;2023-04-03T03:08:54;6.00;99.90
70986;DHT22;58645;43.068;25.610;2023-04-03T03:11:20;6.00;99.90
70986;DHT22;58645;43.068;25.610;2023-04-03T03:13:46;5.90;99.90
70986;DHT22;58645;43.068;25.610;2023-04-03T03:16:12;5.80;99.90
70986;DHT22;58645;43.068;25.610;2023-04-03T03:18:38;5.80;99.90
70986;DHT22;58645;43.068;25.610;2023-04-03T03:21:04;5.70;99.90
70986;DHT22;58645;43.068;25.610;2023-04-03T03:23:31;5.60;99.90
70986;DHT22;58645;43.068;25.610;2023-04-03T03:25:59;5.60;99.90
70986;DHT22;58645;43.068;25.610;2023-04-03T03:28:26;5.50;99.90
70986;DHT22;58645;43.068;25.610;2023-04-03T03:30:51;5.50;99.90
70986;DHT22;58645;43.068;25.610;2023-04-03T03:33:18;5.50;99.90
70986;DHT22;58645;43.068;25.610;2023-04-03T03:35:44;5.50;99.90
70986;DHT22;58645;43.068;25.610;2023-04-03T03:38:11;5.50;99.90
70986;DHT22;58645;43.068;25.610;2023-04-03T03:40:36;5.40;99.90
70986;DHT22;58645;43.068;25.610;2023-04-03T03:43:02;5.40;99.90
70986;DHT22;58645;43.068;25.610;2023-04-03T03:45:28;5.40;99.90
70986;DHT22;58645;43.068;25.610;2023-04-03T03:47:54;5.40;99.90
70986;DHT22;58645;43.068;25.610;2023-04-03T03:50:19;5.50;99.90
70986;DHT22;58645;43.068;25.610;2023-04-03T03:52:45;5.40;99.90
70986;DHT22;58645;43.068;25.610;2023-04-03T03:55:11;5.50;99.90
70986;DHT22;58645;43.068;25.610;2023-04-03T03:57:37;5.50;99.90
70986;DHT22;58645;43.068;25.610;2023-04-03T04:00:04;5.50;99.90
70986;DHT22;58645;43.068;25.610;2023-04-03T04:02:30;5.50;99.90
70986;DHT22;58645;43.068;25.610;2023-04-03T04:04:56;5.50;99.90
70986;DHT22;58645;43.068;25.610;2023-04-03T04:07:22;5.50;99.90
70986;DHT22;58645;43.068;25.610;2023-04-03T04:09:47;5.50;99.90
70986;DHT22;58645;43.068;25.610;2023-04-03T04:12:13;5.60;99.90
70986;DHT22;58645;43.068;25.610;2023-04-03T04:14:39;5.60;99.90
70986;DHT22;58645;43.068;25.610;2023-04-03T04:17:05;5.60;99.90
70986;DHT22;58645;43.068;25.610;2023-04-03T04:19:31;5.60;99.90
70986;DHT22;58645;43.068;25.610;2023-04-03T04:21:58;5.70;99.90
70986;DHT22;58645;43.068;25.610;2023-04-03T04:24:24;5.70;99.90
70986;DHT22;58645;43.068;25.610;2023-04-03T04:26:50;5.80;99.90
70986;DHT22;58645;43.068;25.610;2023-04-03T04:29:15;5.80;99.90
70986;DHT22;58645;43.068;25.610;2023-04-03T04:31:41;5.90;99.90
70986;DHT22;58645;43.068;25.610;2023-04-03T04:34:07;6.00;99.90
70986;DHT22;58645;43.068;25.610;2023-04-03T04:36:33;6.10;99.90
70986;DHT22;58645;43.068;25.610;2023-04-03T04:38:58;6.10;99.90
70986;DHT22;58645;43.068;25.610;2023-04-03T04:41:24;6.20;99.90
70986;DHT22;58645;43.068;25.610;2023-04-03T04:43:51;6.30;99.90
70986;DHT22;58645;43.068;25.610;2023-04-03T04:46:18;6.30;99.90
70986;DHT22;58645;43.068;25.610;2023-04-03T04:48:44;6.40;99.90
70986;DHT22;58645;43.068;25.610;2023-04-03T04:51:10;6.60;99.90
70986;DHT22;58645;43.068;25.610;2023-04-03T04:53:36;6.80;99.90
70986;DHT22;58645;43.068;25.610;2023-04-03T04:56:03;6.90;99.90
70986;DHT22;58645;43.068;25.610;2023-04-03T04:58:28;6.90;99.90
70986;DHT22;58645;43.068;25.610;2023-04-03T05:01:02;7.10;99.90
70986;DHT22;58645;43.068;25.610;2023-04-03T05:03:28;7.20;99.90
70986;DHT22;58645;43.068;25.610;2023-04-03T05:05:54;7.70;99.90
70986;DHT22;58645;43.068;25.610;2023-04-03T05:08:20;8.10;99.90
70986;DHT22;58645;43.068;25.610;2023-04-03T05:10:46;8.40;99.90
70986;DHT22;58645;43.068;25.610;2023-04-03T05:13:12;8.20;99.90
70986;DHT22;58645;43.068;25.610;2023-04-03T05:15:38;8.20;99.90
70986;DHT22;58645;43.068;25.610;2023-04-03T05:18:04;8.40;99.90
70986;DHT22;58645;43.068;25.610;2023-04-03T05:20:31;8.50;99.90
70986;DHT22;58645;43.068;25.610;2023-04-03T05:22:57;8.70;99.90
70986;DHT22;58645;43.068;25.610;2023-04-03T05:25:23;8.90;99.90
70986;DHT22;58645;43.068;25.610;2023-04-03T05:27:49;9.30;99.90
70986;DHT22;58645;43.068;25.610;2023-04-03T05:30:15;9.80;99.90
70986;DHT22;58645;43.068;25.610;2023-04-03T05:32:41;10.00;99.90
70986;DHT22;58645;43.068;25.610;2023-04-03T05:35:09;10.10;99.90
70986;DHT22;58645;43.068;25.610;2023-04-03T05:37:35;10.30;99.90
70986;DHT22;58645;43.068;25.610;2023-04-03T05:40:03;10.70;99.90
70986;DHT22;58645;43.068;25.610;2023-04-03T05:42:28;11.00;99.90
70986;DHT22;58645;43.068;25.610;2023-04-03T05:44:55;11.40;99.90
70986;DHT22;58645;43.068;25.610;2023-04-03T05:47:20;11.90;99.90
70986;DHT22;58645;43.068;25.610;2023-04-03T05:49:46;12.40;99.90
70986;DHT22;58645;43.068;25.610;2023-04-03T05:52:29;12.90;97.90
70986;DHT22;58645;43.068;25.610;2023-04-03T05:54:55;13.50;93.60
70986;DHT22;58645;43.068;25.610;2023-04-03T05:57:21;13.80;88.60
70986;DHT22;58645;43.068;25.610;2023-04-03T05:59:48;14.10;85.10
70986;DHT22;58645;43.068;25.610;2023-04-03T06:02:21;14.30;82.10
70986;DHT22;58645;43.068;25.610;2023-04-03T06:04:47;14.40;79.90
70986;DHT22;58645;43.068;25.610;2023-04-03T06:07:22;14.40;78.60
70986;DHT22;58645;43.068;25.610;2023-04-03T06:09:50;14.40;77.50
70986;DHT22;58645;43.068;25.610;2023-04-03T06:12:17;14.50;77.30
70986;DHT22;58645;43.068;25.610;2023-04-03T06:14:42;14.40;77.20
70986;DHT22;58645;43.068;25.610;2023-04-03T06:17:08;14.30;78.90
70986;DHT22;58645;43.068;25.610;2023-04-03T06:19:35;14.00;78.90
70986;DHT22;58645;43.068;25.610;2023-04-03T06:22:01;13.70;80.60
70986;DHT22;58645;43.068;25.610;2023-04-03T06:24:28;13.60;83.20
70986;DHT22;58645;43.068;25.610;2023-04-03T06:26:54;13.40;82.60
70986;DHT22;58645;43.068;25.610;2023-04-03T06:29:20;13.30;83.90
70986;DHT22;58645;43.068;25.610;2023-04-03T06:31:47;12.80;87.00
70986;DHT22;58645;43.068;25.610;2023-04-03T06:34:13;12.70;88.70
70986;DHT22;58645;43.068;25.610;2023-04-03T06:36:39;12.70;89.80
70986;DHT22;58645;43.068;25.610;2023-04-03T06:39:05;12.60;89.60
70986;DHT22;58645;43.068;25.610;2023-04-03T06:41:33;12.90;88.90
70986;DHT22;58645;43.068;25.610;2023-04-03T06:43:58;13.30;86.60
70986;DHT22;58645;43.068;25.610;2023-04-03T06:46:26;13.20;85.70
70986;DHT22;58645;43.068;25.610;2023-04-03T06:48:52;13.40;86.50
70986;DHT22;58645;43.068;25.610;2023-04-03T06:51:24;13.80;86.00
70986;DHT22;58645;43.068;25.610;2023-04-03T06:53:51;13.80;84.30
70986;DHT22;58645;43.068;25.610;2023-04-03T06:56:18;13.90;83.40
70986;DHT22;58645;43.068;25.610;2023-04-03T06:58:45;14.20;82.10
70986;DHT22;58645;43.068;25.610;2023-04-03T07:01:13;14.40;80.40
70986;DHT22;58645;43.068;25.610;2023-04-03T07:03:39;14.70;78.70
70986;DHT22;58645;43.068;25.610;2023-04-03T07:06:07;14.70;76.60
70986;DHT22;58645;43.068;25.610;2023-04-03T07:08:34;14.90;76.40
70986;DHT22;58645;43.068;25.610;2023-04-03T07:11:00;14.90;76.30
70986;DHT22;58645;43.068;25.610;2023-04-03T07:13:26;14.90;76.90
70986;DHT22;58645;43.068;25.610;2023-04-03T07:15:52;15.10;78.60
70986;DHT22;58645;43.068;25.610;2023-04-03T07:18:19;15.50;76.20
70986;DHT22;58645;43.068;25.610;2023-04-03T07:20:45;15.80;74.10
70986;DHT22;58645;43.068;25.610;2023-04-03T07:23:11;15.90;74.20
70986;DHT22;58645;43.068;25.610;2023-04-03T07:25:41;15.90;73.70
70986;DHT22;58645;43.068;25.610;2023-04-03T07:28:07;15.90;74.00
70986;DHT22;58645;43.068;25.610;2023-04-03T07:30:33;15.80;73.20
70986;DHT22;58645;43.068;25.610;2023-04-03T07:32:59;15.90;73.90
70986;DHT22;58645;43.068;25.610;2023-04-03T07:35:25;16.00;73.60
70986;DHT22;58645;43.068;25.610;2023-04-03T07:37:51;16.20;70.80
70986;DHT22;58645;43.068;25.610;2023-04-03T07:40:16;16.70;71.80
70986;DHT22;58645;43.068;25.610;2023-04-03T07:42:42;17.20;69.30
70986;DHT22;58645;43.068;25.610;2023-04-03T07:45:08;17.60;66.30
70986;DHT22;58645;43.068;25.610;2023-04-03T07:47:34;18.10;65.20
70986;DHT22;58645;43.068;25.610;2023-04-03T07:50:00;18.10;63.50
70986;DHT22;58645;43.068;25.610;2023-04-03T07:52:26;18.30;61.80
70986;DHT22;58645;43.068;25.610;2023-04-03T07:54:52;18.50;62.30
70986;DHT22;58645;43.068;25.610;2023-04-03T07:57:17;19.00;59.70
70986;DHT22;58645;43.068;25.610;2023-04-03T07:59:43;19.40;57.00
70986;DHT22;58645;43.068;25.610;2023-04-03T08:02:10;19.60;56.70
70986;DHT22;58645;43.068;25.610;2023-04-03T08:04:36;19.60;56.40
70986;DHT22;58645;43.068;25.610;2023-04-03T08:07:02;19.70;55.20
70986;DHT22;58645;43.068;25.610;2023-04-03T08:09:27;19.70;54.30
70986;DHT22;58645;43.068;25.610;2023-04-03T08:11:53;19.50;55.00
70986;DHT22;58645;43.068;25.610;2023-04-03T08:14:19;19.80;54.90
70986;DHT22;58645;43.068;25.610;2023-04-03T08:16:47;20.10;54.30
70986;DHT22;58645;43.068;25.610;2023-04-03T08:19:13;20.50;52.80
70986;DHT22;58645;43.068;25.610;2023-04-03T08:21:42;20.40;52.80
70986;DHT22;58645;43.068;25.610;2023-04-03T08:24:08;20.50;52.50
70986;DHT22;58645;43.068;25.610;2023-04-03T08:26:34;20.80;52.90
70986;DHT22;58645;43.068;25.610;2023-04-03T08:29:01;20.90;51.30
70986;DHT22;58645;43.068;25.610;2023-04-03T08:31:27;21.10;51.10
70986;DHT22;58645;43.068;25.610;2023-04-03T08:33:53;20.90;51.70
70986;DHT22;58645;43.068;25.610;2023-04-03T08:36:21;20.40;50.80
70986;DHT22;58645;43.068;25.610;2023-04-03T08:38:48;20.10;51.90
70986;DHT22;58645;43.068;25.610;2023-04-03T08:41:32;20.00;52.20
70986;DHT22;58645;43.068;25.610;2023-04-03T08:44:22;19.70;52.70
70986;DHT22;58645;43.068;25.610;2023-04-03T08:47:02;19.50;54.30
70986;DHT22;58645;43.068;25.610;2023-04-03T08:49:42;19.50;54.40
70986;DHT22;58645;43.068;25.610;2023-04-03T08:57:53;19.60;51.90
70986;DHT22;58645;43.068;25.610;2023-04-03T09:00:23;19.30;54.60
70986;DHT22;58645;43.068;25.610;2023-04-03T09:02:52;19.60;53.60
70986;DHT22;58645;43.068;25.610;2023-04-03T09:05:39;19.50;53.40
70986;DHT22;58645;43.068;25.610;2023-04-03T09:11:26;19.10;54.30
70986;DHT22;58645;43.068;25.610;2023-04-03T09:17:21;19.50;54.10
70986;DHT22;58645;43.068;25.610;2023-04-03T09:19:56;19.40;52.70
70986;DHT22;58645;43.068;25.610;2023-04-03T09:22:25;19.40;53.00
70986;DHT22;58645;43.068;25.610;2023-04-03T09:25:22;19.50;52.50
70986;DHT22;58645;43.068;25.610;2023-04-03T09:27:47;19.90;52.30
70986;DHT22;58645;43.068;25.610;2023-04-03T09:30:18;20.40;51.90
70986;DHT22;58645;43.068;25.610;2023-04-03T09:32:46;20.40;51.80
70986;DHT22;58645;43.068;25.610;2023-04-03T09:35:30;20.40;50.70
70986;DHT22;58645;43.068;25.610;2023-04-03T09:40:42;20.30;52.10
70986;DHT22;58645;43.068;25.610;2023-04-03T09:43:25;20.50;50.80
70986;DHT22;58645;43.068;25.610;2023-04-03T09:45:52;20.50;49.80
70986;DHT22;58645;43.068;25.610;2023-04-03T09:48:21;20.90;50.10
70986;DHT22;58645;43.068;25.610;2023-04-03T09:53:41;21.90;50.90
70986;DHT22;58645;43.068;25.610;2023-04-03T09:56:21;22.00;48.40
70986;DHT22;58645;43.068;25.610;2023-04-03T09:58:51;21.50;48.40
70986;DHT22;58645;43.068;25.610;2023-04-03T10:04:12;21.30;49.70
70986;DHT22;58645;43.068;25.610;2023-04-03T10:09:33;21.40;49.10
70986;DHT22;58645;43.068;25.610;2023-04-03T10:12:12;21.50;49.10
70986;DHT22;58645;43.068;25.610;2023-04-03T10:15:01;21.30;49.30
70986;DHT22;58645;43.068;25.610;2023-04-03T10:25:43;20.70;49.90
70986;DHT22;58645;43.068;25.610;2023-04-03T10:28:24;20.60;49.00
70986;DHT22;58645;43.068;25.610;2023-04-03T10:39:20;20.80;49.00
70986;DHT22;58645;43.068;25.610;2023-04-03T10:41:59;20.80;48.90
70986;DHT22;58645;43.068;25.610;2023-04-03T10:44:36;20.60;49.60
70986;DHT22;58645;43.068;25.610;2023-04-03T10:57:28;19.10;52.10
70986;DHT22;58645;43.068;25.610;2023-04-03T11:00:18;18.60;54.00
70986;DHT22;58645;43.068;25.610;2023-04-03T11:02:56;18.40;54.20
70986;DHT22;58645;43.068;25.610;2023-04-03T11:05:42;18.20;54.30
70986;DHT22;58645;43.068;25.610;2023-04-03T11:10:57;17.90;55.10
70986;DHT22;58645;43.068;25.610;2023-04-03T11:13:40;18.10;55.10
70986;DHT22;58645;43.068;25.610;2023-04-03T11:16:08;18.20;55.30
70986;DHT22;58645;43.068;25.610;2023-04-03T11:18:48;18.30;54.70
70986;DHT22;58645;43.068;25.610;2023-04-03T11:21:27;18.30;54.50
70986;DHT22;58645;43.068;25.610;2023-04-03T11:23:56;18.40;54.90
70986;DHT22;58645;43.068;25.610;2023-04-03T11:26:27;18.40;54.80
70986;DHT22;58645;43.068;25.610;2023-04-03T11:28:59;18.20;55.80
70986;DHT22;58645;43.068;25.610;2023-04-03T11:34:21;18.60;55.20
70986;DHT22;58645;43.068;25.610;2023-04-03T11:36:54;18.40;55.00
70986;DHT22;58645;43.068;25.610;2023-04-03T11:39:40;17.90;55.10
70986;DHT22;58645;43.068;25.610;2023-04-03T11:42:16;17.90;55.60
70986;DHT22;58645;43.068;25.610;2023-04-03T11:44:43;17.90;55.50
70986;DHT22;58645;43.068;25.610;2023-04-03T11:47:10;17.90;55.00
70986;DHT22;58645;43.068;25.610;2023-04-03T11:50:30;18.00;55.50
70986;DHT22;58645;43.068;25.610;2023-04-03T11:52:57;18.00;55.20
70986;DHT22;58645;43.068;25.610;2023-04-03T12:00:56;17.60;56.40
70986;DHT22;58645;43.068;25.610;2023-04-03T12:37:47;16.80;58.10
70986;DHT22;58645;43.068;25.610;2023-04-03T12:40:38;16.80;58.50
70986;DHT22;58645;43.068;25.610;2023-04-03T12:46:17;16.80;58.70
70986;DHT22;58645;43.068;25.610;2023-04-03T12:48:52;17.00;57.70
70986;DHT22;58645;43.068;25.610;2023-04-03T12:51:37;17.10;57.60
70986;DHT22;58645;43.068;25.610;2023-04-03T12:54:19;17.10;57.70
70986;DHT22;58645;43.068;25.610;2023-04-03T12:56:45;17.00;58.20
70986;DHT22;58645;43.068;25.610;2023-04-03T12:59:23;16.90;58.60
70986;DHT22;58645;43.068;25.610;2023-04-03T13:02:00;16.70;58.80
70986;DHT22;58645;43.068;25.610;2023-04-03T13:04:31;16.60;58.70
70986;DHT22;58645;43.068;25.610;2023-04-03T13:07:22;16.50;58.90
70986;DHT22;58645;43.068;25.610;2023-04-03T13:10:17;16.40;58.30
70986;DHT22;58645;43.068;25.610;2023-04-03T13:13:08;16.30;58.30
70986;DHT22;58645;43.068;25.610;2023-04-03T13:15:47;16.20;58.60
70986;DHT22;58645;43.068;25.610;2023-04-03T13:18:27;16.10;59.30
70986;DHT22;58645;43.068;25.610;2023-04-03T13:20:58;16.10;60.40
70986;DHT22;58645;43.068;25.610;2023-04-03T13:23:26;16.10;61.00
70986;DHT22;58645;43.068;25.610;2023-04-03T13:25:52;16.20;63.10
70986;DHT22;58645;43.068;25.610;2023-04-03T13:28:22;16.10;62.40
70986;DHT22;58645;43.068;25.610;2023-04-03T13:31:34;16.00;63.30
70986;DHT22;58645;43.068;25.610;2023-04-03T13:36:54;15.70;66.40
70986;DHT22;58645;43.068;25.610;2023-04-03T13:41:51;15.40;68.50
70986;DHT22;58645;43.068;25.610;2023-04-03T13:44:30;15.30;69.60
70986;DHT22;58645;43.068;25.610;2023-04-03T13:49:45;14.90;71.70
70986;DHT22;58645;43.068;25.610;2023-04-03T13:52:31;14.80;73.30
70986;DHT22;58645;43.068;25.610;2023-04-03T13:55:34;14.80;75.00
70986;DHT22;58645;43.068;25.610;2023-04-03T14:00:49;14.60;77.60
70986;DHT22;58645;43.068;25.610;2023-04-03T14:06:30;14.60;77.90
70986;DHT22;58645;43.068;25.610;2023-04-03T14:08:56;14.60;78.70
70986;DHT22;58645;43.068;25.610;2023-04-03T14:11:26;14.50;82.30
70986;DHT22;58645;43.068;25.610;2023-04-03T14:14:06;14.60;81.60
70986;DHT22;58645;43.068;25.610;2023-04-03T14:16:39;14.50;84.30
70986;DHT22;58645;43.068;25.610;2023-04-03T14:19:06;14.40;85.20
70986;DHT22;58645;43.068;25.610;2023-04-03T14:21:33;14.30;89.80
70986;DHT22;58645;43.068;25.610;2023-04-03T14:23:59;14.30;91.40
70986;DHT22;58645;43.068;25.610;2023-04-03T14:26:25;14.20;93.40
70986;DHT22;58645;43.068;25.610;2023-04-03T14:28:54;14.20;93.70
70986;DHT22;58645;43.068;25.610;2023-04-03T14:31:21;14.10;96.60
70986;DHT22;58645;43.068;25.610;2023-04-03T14:33:47;14.00;99.90
70986;DHT22;58645;43.068;25.610;2023-04-03T14:36:28;13.90;99.90
70986;DHT22;58645;43.068;25.610;2023-04-03T14:38:54;13.80;99.90
70986;DHT22;58645;43.068;25.610;2023-04-03T14:41:22;13.80;99.90
70986;DHT22;58645;43.068;25.610;2023-04-03T14:43:49;13.80;99.90
70986;DHT22;58645;43.068;25.610;2023-04-03T14:46:31;13.70;99.90
70986;DHT22;58645;43.068;25.610;2023-04-03T14:48:58;13.60;99.90
70986;DHT22;58645;43.068;25.610;2023-04-03T14:51:25;13.50;99.90
70986;DHT22;58645;43.068;25.610;2023-04-03T14:53:52;13.40;99.90
70986;DHT22;58645;43.068;25.610;2023-04-03T14:56:26;13.20;99.90
70986;DHT22;58645;43.068;25.610;2023-04-03T14:58:56;13.10;99.90
70986;DHT22;58645;43.068;25.610;2023-04-03T15:01:22;13.00;99.90
70986;DHT22;58645;43.068;25.610;2023-04-03T15:03:49;12.90;99.90
70986;DHT22;58645;43.068;25.610;2023-04-03T15:06:15;12.80;99.90
70986;DHT22;58645;43.068;25.610;2023-04-03T15:08:42;12.70;99.90
70986;DHT22;58645;43.068;25.610;2023-04-03T15:11:10;12.70;99.90
70986;DHT22;58645;43.068;25.610;2023-04-03T15:13:37;12.70;99.90
70986;DHT22;58645;43.068;25.610;2023-04-03T15:16:15;12.60;99.90
70986;DHT22;58645;43.068;25.610;2023-04-03T15:18:41;12.60;99.90
70986;DHT22;58645;43.068;25.610;2023-04-03T15:21:07;12.60;99.90
70986;DHT22;58645;43.068;25.610;2023-04-03T15:23:33;12.50;99.90
70986;DHT22;58645;43.068;25.610;2023-04-03T15:25:59;12.50;99.90
70986;DHT22;58645;43.068;25.610;2023-04-03T15:28:31;12.40;99.90
70986;DHT22;58645;43.068;25.610;2023-04-03T15:30:58;12.40;99.90
70986;DHT22;58645;43.068;25.610;2023-04-03T15:33:25;12.40;99.90
70986;DHT22;58645;43.068;25.610;2023-04-03T15:35:51;12.40;99.90
70986;DHT22;58645;43.068;25.610;2023-04-03T15:38:17;12.30;99.90
70986;DHT22;58645;43.068;25.610;2023-04-03T15:40:43;12.40;99.90
70986;DHT22;58645;43.068;25.610;2023-04-03T15:43:09;12.40;99.90
70986;DHT22;58645;43.068;25.610;2023-04-03T15:45:36;12.30;99.90
70986;DHT22;58645;43.068;25.610;2023-04-03T15:48:03;12.30;99.90
70986;DHT22;58645;43.068;25.610;2023-04-03T15:50:31;12.30;99.90
70986;DHT22;58645;43.068;25.610;2023-04-03T15:52:57;12.30;99.90
70986;DHT22;58645;43.068;25.610;2023-04-03T15:55:29;12.20;99.90
70986;DHT22;58645;43.068;25.610;2023-04-03T15:57:55;12.20;99.90
70986;DHT22;58645;43.068;25.610;2023-04-03T16:00:23;12.20;99.90
70986;DHT22;58645;43.068;25.610;2023-04-03T16:02:52;12.10;99.90
70986;DHT22;58645;43.068;25.610;2023-04-03T16:05:18;12.00;99.90
70986;DHT22;58645;43.068;25.610;2023-04-03T16:07:45;12.10;99.90
70986;DHT22;58645;43.068;25.610;2023-04-03T16:10:13;12.00;99.90
70986;DHT22;58645;43.068;25.610;2023-04-03T16:12:39;12.00;99.90
70986;DHT22;58645;43.068;25.610;2023-04-03T16:15:05;11.90;99.90
70986;DHT22;58645;43.068;25.610;2023-04-03T16:17:33;11.90;99.90
70986;DHT22;58645;43.068;25.610;2023-04-03T16:19:59;11.90;99.90
70986;DHT22;58645;43.068;25.610;2023-04-03T16:22:26;11.80;99.90
70986;DHT22;58645;43.068;25.610;2023-04-03T16:24:53;11.80;99.90
70986;DHT22;58645;43.068;25.610;2023-04-03T16:27:20;11.80;99.90
70986;DHT22;58645;43.068;25.610;2023-04-03T16:29:45;11.80;99.90
70986;DHT22;58645;43.068;25.610;2023-04-03T16:32:12;11.80;99.90
70986;DHT22;58645;43.068;25.610;2023-04-03T16:34:38;11.80;99.90
70986;DHT22;58645;43.068;25.610;2023-04-03T16:37:06;11.80;99.90
70986;DHT22;58645;43.068;25.610;2023-04-03T16:39:34;11.80;99.90
70986;DHT22;58645;43.068;25.610;2023-04-03T16:42:00;11.70;99.90
70986;DHT22;58645;43.068;25.610;2023-04-03T16:44:26;11.80;99.90
70986;DHT22;58645;43.068;25.610;2023-04-03T16:46:52;11.70;99.90
70986;DHT22;58645;43.068;25.610;2023-04-03T16:49:17;11.70;99.90
70986;DHT22;58645;43.068;25.610;2023-04-03T16:51:43;11.70;99.90
70986;DHT22;58645;43.068;25.610;2023-04-03T16:54:09;11.70;99.90
70986;DHT22;58645;43.068;25.610;2023-04-03T16:56:37;11.80;99.90
70986;DHT22;58645;43.068;25.610;2023-04-03T16:59:02;11.80;99.90
70986;DHT22;58645;43.068;25.610;2023-04-03T17:01:28;11.80;99.90
70986;DHT22;58645;43.068;25.610;2023-04-03T17:03:54;11.70;99.90
70986;DHT22;58645;43.068;25.610;2023-04-03T17:06:21;11.70;99.90
70986;DHT22;58645;43.068;25.610;2023-04-03T17:08:49;11.70;99.90
70986;DHT22;58645;43.068;25.610;2023-04-03T17:11:15;11.60;99.90
70986;DHT22;58645;43.068;25.610;2023-04-03T17:13:41;11.60;99.90
70986;DHT22;58645;43.068;25.610;2023-04-03T17:16:09;11.60;99.90
70986;DHT22;58645;43.068;25.610;2023-04-03T17:18:35;11.60;99.90
70986;DHT22;58645;43.068;25.610;2023-04-03T17:21:02;11.50;99.90
70986;DHT22;58645;43.068;25.610;2023-04-03T17:23:29;11.50;99.90
70986;DHT22;58645;43.068;25.610;2023-04-03T17:25:55;11.50;99.90
70986;DHT22;58645;43.068;25.610;2023-04-03T17:28:22;11.50;99.90
70986;DHT22;58645;43.068;25.610;2023-04-03T17:30:54;11.50;99.90
70986;DHT22;58645;43.068;25.610;2023-04-03T17:33:20;11.50;99.90
70986;DHT22;58645;43.068;25.610;2023-04-03T17:35:46;11.50;99.90